Almozara, Spain
Current Conditions -  °F | °C
As of 8:30 AM on Monday 22 Dec 2014 (Local Time) from LEZG Reporting Station
Moderate Fog Moderate Fog  
Wind Chill:   Ceiling: 100
Heat Index:   Visibility: 0.25mi
Dew Point:   Wind: 3mph
Humidity: 100%   Direction: 190°S
Pressure: 30.53"   Gusts: NA
Location:  41.66°N, 0.9°W
Report Text: LEZG 220730Z 19003KT 170V230 0400 R30R/1000N R12R/1800N R30L/P2000 FG VV001 02/02 Q1034
Loading
Personal Weather Stations






























Interactive Weather Map New forecast layout! Learn more

10-Day Weather Forecast

Advertisements
Track Severe Weather on mobile